SMRA90 UAOL 242100
AAXX 24211
91612 41599 11211 10298 20256 40098 52019 70100 81101 333 563/9 81820 64810 42460 20000 10275 20261 30086 40116 82500 333 58005 82614=
91824 41499 51112 10270 20231 40126 52011 70222 858// 333 562// 555 1////=
91929 24686 /2103 10291 20231 30109 40112 58001 700// 333 4//// 69907 90710 91110 555 60005=
93339 46/// /2703 10080 20055 39263 52014=
93985 46597 /2415 10137 20089 30141 40157 52013=
94100 46/// /1701 10216 20199 30074 40101=
94106 46/// /0000 10188 20185 30094 40112=
94108 46/// /1204 10254 20206 30084 40096=
94109 46/// /1402 10223 20206 30086 40098=
94110 46/// /1203 10228 20198 30091 40101=
94341 46/// /1504 10116 20039 39892 40127=
94344 46/// /1605 10122 21013 39936 40141=
94348 46/// /2001 10166 20083=
94349 46/// /1102 10176 20007=
94395 46/// /0000 10109 20057 39828 40137=
94417 46/// /1903 10121 20059 39880 40194=
94429 46/// /1705 10151 20056 39704 40168=
94450 46/// /1310 10162 20074 39747 40172=
94628 46/// /0000 10057 20039 39836 40211=
94641 46/// /0000 10095 20078 39838 40213=
94644 46/// /3007 10119 20098 30196 40200=
94782 46/// /2703 10168 20150=
94875 46/// /0000 10147 20113 30024 40160=
94943 46/// /0805 10055 20051 39455 40178=
94988 46/// /2403 10140 20096 30121 40130=
95111 46/// /0904 10198 20174 30065 40098=
95214 46/// /0000 10217 2//// 30099 40104=
95305 46/// /2110 10253 20107 30102 40115=
95317 46/// /0802 10254 20154 39892 40097=
95322 46/// /2802 10135 20021 39739 40122=
95402 46/// /1611 10185 20129 30117 40157=
95480 46/// /1306 10148 20033 30101 40160=
95482 46/// /1103 10179 20010 30087 40141=
95485 46/// /2605 10193 21012 39955 40160=
95492 46/// /0000 10177 21010 30003 40157=
95625 46/// /0905 10095 20071 39960 40214=
95632 46/// /0000 10068 20065 30008 40220=
95634 46/// /1309 10107 20072 39799 40202=
95635 46/// /3504 10108 20103 30178 40210=
95637 46/// /3002 10098 20074 39879 40214=
95639 46/// /3104 10061 20049=
95642 46/// /0000 10075 20064 39905 40213=
95644 46/// /3604 10093 20090 39953 40212=
95647 46/// /3003 10123 20123 30123 40210=
95826 46/// /3105 10137 30161 40163=
95832 46/// /0000 10066 20065=
95839 46/// /2704 10046 20042 30016 40176=
95966 46/// /3106 10114 20111 39949 40150=
98222 32465 10901 10253 20223 40104 53006 81200 333 56999 81819=
98223 32460 11401 10250 20228 40092 56001 81802 333 56999 81619=
98328 31460 13401 10168 20159 38502 40072 53002 70544 81100 333 56999 81815=
98426 31566 10602 10266 20228 30055 40077 55006 70544 81130 333 569// 81820=
98428 32458 62201 10289 20248 40093 56003 82470 333 56999 82618 86359=
98431 31460 30000 10268 20249 30050 40097 56004 70122 83230 333 56999 83818 83360=
98446 32468 10000 10240 20233 30048 40094 55000 81200 333 56999 81820=
98543 32465 51401 10262 20249 30081 40092 54000 83201 333 56999 83818 84075=
98618 32570 12902 10267 20239 40092 53002 81101 333 56999 81820=
98646 32560 50000 10268 20238 30059 40087 53001 82270 333 56999 82820 84459=
98653 31465 22101 10272 20256 30048 40093 55000 70100 82200 333 56999 82818=
98746 21462 82101 10248 20230 40078 52012 70586 83208 333 56999 60027 83818 87275=



SMUS90 KWBC 242100
AAXX 24214
91579 24970 70704 10262 20239 30119 40129 51017 700// 333 4//// 60007 90710 91111 555 60005=
91587 24463 /0406 10251 20235 30076 40131 53010 700// 333 4//// 69907 90710 91112 555 60005=
91590 24661 80301 10236 20220 30122 40135 53019 761// 333 4//// 69947 90710 91104 555 69925=
91596 24469 73508 10253 20234 30016 40134 53021 700// 333 4//// 60007 90710 91114 555 60005=
91610 41499 30908 10300 20249 40102 52019 70100 83201 333 562/9 82818 83820=
91643 41499 31008 10310 20248 40099 51016 70200 83200 333 562// 83818=
91753 24584 /1509 10292 20254 30072 40103 52011 700// 333 4//// 60007 90710 91117 555 60005=
91779 11498 51108 10270 20229 40135 52017 70311 8413/ 333 5639/ 84817 85362=
91784 41498 21211 10267 20221 40141 5//// 70100 82100 333 563// 82818=
91792 41498 50000 10268 20218 40151 50007 70101 82701 333 5699/ 81710 82817 85080 555 20000 32923 4////=
91925 22582 20916 10303 20222 30050 40109 58012 82200 333 56200 60007 82823 90710 91125 555 60005 10925 58006=
91938 21458 82110 10242 20221 30111 40113 50005 76186 8687/ 333 56599 60147 83818 84650 87460 90710 91122 555 60115 12123 58009=
91944 24862 /3617 10279 20226 30111 40114 50002 700// 333 4//// 60007 90710 91121 555 60005=
91948 21480 73309 10263 20238 30019 40120 58013 70386 872// 333 56899 69967 87816 90710 91119 555 60005 13319 59004=
91954 24/70 /1713 10256 20206 30103 40106 50004 700// 333 4//// 60007 90710 91116 555 60005 11817 58027=
91958 22580 61804 10249 20190 30086 40088 50003 86201 333 56306 60007 86823 90710 91110 555 60005 11811 59024=
93004 46/// /0806 10177 20121 39971 40223 52007=
93023 46/// /2103 10151 20113 30122 40224 52007=
93069 46/// /2507 10173 20102 30137 40220 52010=
93110 47/98 /0103 10157 20132 30206 40215 52008=
93186 47/98 /2407 10140 20116 30207 40212 52008=
93196 46/// /2204 10145 20096 30146 40200 52014=
93201 46/// /1808 10155 20120 30187 40216 52014=
93245 47/98 /1603 10114 20090 39730 40217 52006=
93292 47/98 /3207 10123 20084 30201 40206 52015=
93309 47/98 /1404 10125 20112 30179 40215 52016=
93373 47/98 /1603 10134 20095 30203 40205 52012=
93404 47598 /3605 10140 20109 30154 40210 52013=
93420 47598 /0608 10133 20116 30193 40200 52012=
93439 47/98 /0309 10136 20094 30177 40192 52008=
93498 46/// /3108 10136 20090 30057 40200 52017=
93515 47/98 /1406 10109 20087 30215 40220 52012=
93527 46/// /2706 10140 20090 30196 40202 52012=
93546 47/98 /2307 10124 20063 30193 40199 52010=
93597 46/// /3310 10132 20068 30179 40185 52010=
93615 47698 /1402 10103 20096 30165 40223 52014=
93678 46/98 /2307 10112 20084 30062 40192 52019=
93709 46/// /1504 10112 20101 30215 40216 52009=
93747 46/// /1901 10082 20032 39611 40193 57002=
93773 47997 /3106 10090 20076 30153 40186 52009=
93781 47998 /2402 10087 20082 30151 40197 52020=
93800 46/// /0707 10116 20087 30183 40204 52005=
93831 47998 /0404 10084 20030 39766 40198 52005=
93845 47998 /0303 10091 20074 30175 40176 52007=
93891 47998 /0402 10084 20069 30186 40189 52012=
93909 46/// /3224 10118 20083 30029 40153 57003=
93929 46/// /3213 10094 20073 40103 57008=
93947 46/// /2617 10059 20021 40076 52011=
93994 46/// /1501 10213 20157 30137 40193 52004=
94102 46/// /2806 10281 20237 30093 40102=
94103 46/// /2806 10294 30095 40100=
94105 46/// /0000 10201 20191 30076 40097=
94120 46/// /1204 10237 20172 30060 40100=
94122 46/// /1004 10225 20210 30088 40097=
94131 46/// /1604 10156 20133 39951 40103=
94147 46/// /1215 10276 20209 30070 40092=
94150 46/// /1603 10201 20166 30036 40096=
94170 46/// /1206 10216 20204 30079 40101=
94200 46/// /1904 10194 20138 30087 40096=
94203 46/// /0000 10215 20210 30088 40098=
94204 46/// /0000 10166 20155 39999 40087=
94206 46/// /0000 10182 20082 39971 40101=
94207 46/// /2909 10291 30082 40090 57002=
94212 46/// /0000 10152 20054 39649 40106=
94216 46/// /0000 10196 20174 30058 40108=
94217 46/// /2704 10242 20084 39926 40111=
94238 46/// /0909 10206 20029 39706 40129=
94248 46/// /1712 10249 20202 30095 40109=
94255 46/// /1502 10145 20058 39866 40129=
94268 46/// /0803 10207 20177 30101 40113=
94287 46/// /1406 10205 20175 30113 40123=
94294 46/// /0000 10190 20179 30117 40127=
94298 46/// /1616 10257 30107 40113 53015=
94299 46/// /1518 10263 20213 30100 40111=
94300 46/// /1515 10200 20148 30133 40143=
94302 46/// /2009 10212 20148 30116 40122=
94306 46/// /2204 10254 20080 30083 40097=
94308 46/// /2606 10275 20089 30079 40092=
94312 46/// /3206 10259 20250 30084 40093=
94316 46/// /0103 10231 20064 39632 40104=
94317 46/// /2105 10222 20064 39516 40099=
94319 46/// /2806 10257 20068 39772 40099=
94326 46/// /2803 10134 21003 39527 40146=
94332 46/// /0000 10131 20035 39748 40133=
94346 46/// /1305 10139 20025 39918 40138=
94363 46/// /2404 10158 20073 39921 40138=
94367 46/// /2407 10181 20168 30087 40129=
94374 46/// /0000 10167 20157 30123 40140=
94388 46/// /1703 10217 20191 30129 40134=
94393 46/// /1616 10251 30101 40115 53015=
94394 46/// ///13 10245 30113 40121 53012=
94403 46/// /1308 10116 20099 30156 40191=
94430 46/// /1807 10183 20030 39555 40137=
94449 46/// /1112 10160 20097 39642 40172=
94461 46/// /1010 10210 20047 39469 40139=
94462 46/// /1605 10181 20097 39590 40147=
94510 46/// /0403 10113 20074 39800 40148=
94515 46/// /3105 10090 20064 39790 40144=
94552 46/// /1304 10115 20096 39668 40135=
94578 46/// /2007 10186 20163 30125 40136=
94584 46/// /2708 10212 2//// 30020 40130=
94600 46/// /1107 10135 20112 30084 40213=
94601 46/// /2306 10170 20117 30198 40215=
94602 46/// /1207 10158 20118 30160 40211=
94603 46/// /1308 10117 20093=
94604 46/// /0000 10073 20062 30212 40219=
94605 46/// /1204 10129 20106 30211 40215=
94608 46/// /0000 10097 20088 30185 40215=
94609 46/// /0000 10090 20090 30177 40213=
94610 46/// /1706 10090 20084 30191 40215=
94612 46/// /2101 10094 20070 30159 40214=
94614 46/// /1106 10127 20113=
94615 46/// /1310 10132 20100=
94620 46/// /1107 10071 20060 39901 40216=
94637 46/// /1604 10112 20061 39771 40199=
94638 46/// /2907 10104 20096 30183 40215=
94647 46/// /2904 10142 20117 30084 40194=
94651 46/// /1804 10151 20151 30114 40191=
94653 46/// /1005 10126 20121 30162 40181=
94659 46/// /1107 10171 20116 39968 40165=
94672 46/// /0305 10138 20115 30167 40177=
94691 46/// /2307 10187 20098 39842 40170=
94693 46/// /1504 10153 20117 30113 40174=
94703 46/// /0000 10111 20052 30027 40153=
94710 46/// /0604 10126 20016 39907 40161=
94729 46/// /1003 10055 20052 39320 40173=
94750 46/// /3006 10117 20103 30045 40169=
94767 46/// /3007 10153 20121 30157 40163=
94776 46/// /2609 10169 20164 30138 40146=
94802 46/// /2806 10115 2//// 30130 40213=
94804 46/// /3309 10172 2//// 30131 40169=
94821 46/// /3602 10112 20109 30086 40169=
94842 46/// /3307 10133 20119 30066 40165=
94850 46/// /2907 10138 20115 30113 40159=
94865 46/// /2304 10159 20123 30143 40167=
94866 46/// /1703 10153 20133 30027 40168=
94893 46/// /2909 10149 20119 30046 40162=
94907 46/// ///// 10114 20109=
94910 46/// /0905 10142 20070 39911 40162=
94926 46/// /0000 10073 20059 39509 40179=
94935 46/// /3302 10143 20101 30139 40166=
94951 46/// /3505 10132 20085 30117 40132=
94954 46/// /2808 10137 20116 30043 40153=
94956 46/// /3107 10131 20123 30116 40142=
94975 46/// /2908 10123 20085 30103 40136=
94983 46/// /3008 10127 20114 30129 40154=
94995 46/// /0911 10199 20175 30159 40167=
94996 46/// /0619 10187 20179 30032 40168=
94998 46/// /0121 10070 20061 39941 49951=
95205 46/// /2203 10216 20206 30089 40097=
95288 46/// /1420 10261 30093 40108 53009 555 77744 BV129 T0321 44777=
95307 46/// /2607 10275 20148 30082 40089=
95448 46/// /1207 10174 20077 39586 40150=
95458 46/// /1807 10150 20038 39895 40157=
95481 46/// /1406 10206 20004 30109 40154=
95527 46/// /0000 10122 20039 39893 40146=
95610 46/// /1407 10105 20091=
95611 46/// /1103 10071 20070 30197 40217=
95636 46/// /2506 10085 20076 39852 40210=
95638 46/// /3406 10085 20076 30047 40215=
95646 46/// /1704 10118 20100 30010 40198=
95666 46/// /1410 10182 20162 30137 40154=
95719 46/// /1406 10094 20059 39832 40164=
95762 46/// /0801 10116 20083 39691 40148=
95909 46/// /2405 10082 20031 38080 40207=
95936 46/// /0000 10166 20139 30158 40167=
95954 46/// /3109 10139 20126 30047 40151=
96011 47948 71403 10251 20245 30051 40074 57020 700// 333 1//// 2//// 59000=
96033 21440 80000 10260 20236 30083 40088 55009 72162 84928 333 56000 57903 60077 81920 84617 85457 80980=
96035 21430 70000 10248 20245 30074 40082 57012 72996 84978 333 56000 57900 60117 81916 83617 84360 809//=
96073 31440 70000 10234 20231 30080 40092 56011 83972 333 56000 57901 83915 80958=
96075 32440 50000 10237 20231 30079 40090 57013 82271 333 56000 57802 81816 81617 80856=
96087 32458 50000 10253 20240 30054 40098 56013 82501 333 56000 82614 85080=
96091 32456 30000 10250 20241 30064 40088 56014 81531 333 56000 81613=
96109 32458 60000 10258 20228 30032 40069 57014 82532 333 56000 82615=
96163 32558 70000 10244 20233 30085 40095 57016 81571 333 56000 81620 85362=
96171 31450 70000 10252 20246 30067 40091 57007 70522 85522 333 56000 85615=
96179 32459 73002 10252 20226 30037 40072 56021 83218 333 56000 57802 83817 83460 87280 80850=
96195 32460 50000 10253 20246 30051 40081 57010 82521 333 56000 82617 83460=
96221 21460 81805 10247 20240 30071 40085 57010 70262 83126 333 56999 69907 83810 86460=
96237 32457 81805 10246 20229 30036 40079 57017 84978 333 56000 57901 81917 83616 84460 80980=
96249 32557 70000 10248 20240 30025 40087 57008 83232 333 56800 57881 83820 80863=
96253 21460 70402 10235 20229 30073 40094 56007 72162 83972 333 56000 57900 57800 69937 81915 81820 83080=
96295 32460 60000 10242 20228 39991 40094 56010 82511 333 56000 82615=
96413 41158 72504 10248 20231 30070 40097 54000 76062 8567/ 333 81702 84620 87365=
96421 42268 72002 10245 20240 30058 40094 70362 8457/ 333 82705 83618 87365=
96441 41263 80100 10253 20250 30060 40087 51001 79596 8592/ 333 82705 81915 83616 88464=
96449 41458 81703 10242 20234 30064 40084 51003 76166 8452/ 333 84613 88464=
96465 41415 72402 10243 20240 30056 40090 53003 76462 84878 333 83810 84630 87279=
96471 42468 71104 10255 20237 30084 40087 52005 70222 83848 333 81814 84364 87277=
96481 41462 63300 10253 20247 30072 40091 57002 70222 81841 333 81817 85080=
96491 41463 72503 10260 20248 30071 40083 70122 82832 333 81816 87079=
96509 32458 60000 10258 20248 30079 40088 53003 84131 333 56000 84815=
96525 32458 80000 10246 20238 30083 40086 52002 82176 333 56000 82815 85460=
96529 31409 70000 10241 20237 30083 40099 57001 74244 84121 333 56000 84813 85460=
96581 21450 80503 10248 20238 30086 40093 55008 76166 8517/ 333 56009 60017 85811 88462=
96615 21450 81204 10238 20235 30094 40105 55002 79196 8427/ 333 56009 57802 60137 84812 88462 80856=
96633 21459 72503 10249 20242 30077 40082 53003 70262 83271 333 56000 69907 83618 85460=
96645 31430 70000 10236 20232 30063 40095 57005 71022 85521 333 56000 85612=
96685 32556 60000 10258 20253 30061 40083 53000 82511 333 56000 82620 84462=
96737 31450 50000 10250 20245 30051 40081 55005 70522 82521 333 56000 82617 83460=
96739 31540 60000 10246 20242 30043 40096 57007 71022 83522 333 56000 83620 83460=
96741 32556 60000 10264 20247 30085 40089 52009 82571 333 56000 82622 84360=
96745 32556 70000 10262 20247 30080 40085 57015 84571 333 56000 84920 86460=
96749 31414 72503 10254 20246 30075 40088 55010 74022 83921 333 56000 57964 81918 82620 84460 80980=
96751 32559 60000 10195 20183 39027 40079 56001 83532 333 56000 83620=
96781 31457 30000 10204 20198 39280 40139 57012 70511 81531 333 56000 81618=
96791 32558 70000 10252 20242 30035 40085 56010 83571 333 56000 83620 84460=
96797 32557 50000 10258 20246 30085 40088 57010 81531 333 56000 81620 84080=
96805 22558 62803 10254 20242 30080 40088 57012 82271 333 56000 57802 82820 83360 80859=
96837 31558 63503 10267 20246 30083 40084 57012 70522 83971 333 56000 57900 81920 82820=
96839 32456 51803 10284 20236 30080 40084 57013 82131 333 56000 82414=
96925 32460 60000 10264 20250 30080 40085 55000 85232 333 56000 57802 85818 80860=
96935 31520 42703 10260 20242 30083 40086 57009 70500 81131 333 56000 81820=
96937 32958 20000 10269 20247 30082 40086 56010 80001 333 56000 82080=
96973 32558 41104 10272 20250 30085 40088 55004 82131 333 56000 82820=
96987 32458 62903 10266 20235 30067 40089 56006 85522 333 56000 85619=
96995 46/// /1316 10257 20230 39797 40090=
96996 17442 81311 10244 20235 30111 40115 56012 7//44=
97016 32462 60000 10246 20227 30075 40081 52003 82271 333 56000 57803 81819 83360 80858=
97028 32560 81103 10238 20225 30079 40081 53003 84521 333 56000 84620 87460=
97048 31456 70000 10251 20244 30052 40073 51002 71322 85931 333 56000 57901 57801 81915 80980 84815 80860=
97072 32457 70000 10246 20230 30003 40103 55002 83571 333 56000 83619=
97086 21459 63103 10257 20223 30069 40090 56003 72162 82271 333 56000 57803 60037 82817 84460 80860=
97096 21456 70000 10244 20237 30072 40081 57005 76062 84221 333 56000 57802 69997 84817 83460 80860=
97120 31459 70705 10242 20226 30053 40088 55001 71522 83871 333 56000 57802 82818 85460 80860=
97126 21450 80000 10242 20235 30050 40093 51002 76162 8392/ 333 56009 57900 60097 82915 88460 80980=
97180 22458 60803 10237 20221 30070 40090 58005 82232 333 56000 60007 82819 83360=
97182 32560 41303 10256 20226 30081 40083 56004 82831 333 56000 57800 82820 808//=
97192 32458 30000 10240 20231 30046 40111 52001 81571 333 56000 81617=
97230 32460 70405 10264 20241 30088 40093 55006 84201 333 56200 57821 84817 85080 80860=
97240 32456 20000 10236 20230 39988 40103 57004 81131 333 56000 81816=
97260 32460 21204 10229 20203 30082 40087 56007 81101 333 56000 81820=
97270 32456 20000 10238 20230 30094 40097 55001 81101 333 56000 81815=
97300 32558 30000 10240 20222 30067 40103 51003 83201 333 56000 57802 83820 80857=
97310 45/// /2502 10247 20216 30073 40084 57003 7//// 333 10353 20241 58000=
97340 32550 10000 10236 20208 30088 40100 55002 81101 333 56000 81820=
97372 32558 31104 10249 20222 39981 40102 55003 81131 333 56000 81820=
97378 45/// ///// 1//// 2//// 3//// 4//// 7//// 333 1//// 2//// 5////=
97406 32458 70000 10242 20241 30035 40076 52007 83231 333 56000 57802 83818 84360 80858=
97430 21440 83003 10244 20237 30051 40090 52008 76166 8492/ 333 56700 57971 57871 60387 81915 83818 88459 80980 80860=
97460 21459 50000 10244 20237 30060 40082 52009 72166 83832 333 56000 57802 69907 82817 80858=
97502 32457 40403 10248 20243 30070 40070 51011 82131 333 56000 82812=
97530 32460 80000 10258 20244 30063 40066 53011 85872 333 56000 57801 83814 84460 80833=
97560 32460 81603 10258 20244 30059 40072 52011 83878 333 56000 57803 83818 85361 87280 80860=
97690 32460 73002 10238 20226 39980 40075 52019 83772 333 56000 83811 83360 85079=
97698 31450 62703 10252 20244 30076 40080 5//// 71522 82972 333 56000 57900 81913 81714 83460=
97700 32460 62005 10238 20228 30053 40069 55000 82232 333 56000 57804 82817 84074 80850=
97722 32461 70000 10242 20232 30069 40079 53004 84872 333 56200 57821 83817 80858=
97724 31458 82803 10243 20235 30061 40080 52008 71622 85976 333 56300 57931 57831 82916 84817 80980 80860=
97760 31456 70000 10263 20245 30063 40072 52013 71522 84832 333 56000 57801 82815 83617 80878=
97780 31358 70000 10175 20159 38237 40085 53015 70522 83272 333 56000 57804 83809 86360 80858=
97790 21458 81503 10270 20241 30056 40077 53009 70362 8387/ 333 56209 57822 69947 82818 86458 80858=
97796 32457 70000 10247 20243 30052 40100 51019 84532 333 56000 84614 86362=
97810 32458 71202 10242 20235 30044 40076 53007 82232 333 56200 57822 82819 85077 80850=
97900 32565 21006 10279 20224 30048 40077 55000 82200 333 56200 57822 82820 80830=
97980 32458 61203 10257 20231 30080 40084 52011 84532 333 56000 84620 85360=